Time;durP1;ratioP1;P1;durP2;ratioP2;P2;SDS_P1;SDS_P2;PMS_P1;PMS_P2;Temp;Humidity;BMP_temperature;BMP_pressure;BME280_temperature;BME280_humidity;BME280_pressure;Samples;Min_cycle;Max_cycle;Signal;HPM_P1;HPM_P2
2022/08/29 00:01:32;;;;;;;4.05;1.70;;;22.40;77.80;;;;;;5046856;28;20109;-73
2022/08/29 00:03:58;;;;;;;3.45;1.65;;;22.50;77.60;;;;;;5048214;28;20025;-73
2022/08/29 00:06:24;;;;;;;3.63;1.50;;;22.50;77.60;;;;;;5038522;28;20043;-73
2022/08/29 00:08:50;;;;;;;2.38;0.93;;;22.50;77.70;;;;;;5041423;28;20537;-73
2022/08/29 00:11:16;;;;;;;6.22;1.38;;;22.50;77.90;;;;;;5044652;28;20104;-73
2022/08/29 00:13:42;;;;;;;2.60;1.10;;;22.50;77.70;;;;;;5052677;28;20033;-73
2022/08/29 00:16:09;;;;;;;3.60;1.35;;;22.50;77.70;;;;;;5035946;28;20034;-73
2022/08/29 00:18:35;;;;;;;7.32;1.92;;;22.50;77.60;;;;;;5031425;28;20044;-73
2022/08/29 00:21:03;;;;;;;3.83;2.05;;;22.50;77.70;;;;;;5033028;28;20067;-73
2022/08/29 00:23:29;;;;;;;4.68;1.70;;;22.50;77.80;;;;;;5052527;28;20086;-71
2022/08/29 00:25:55;;;;;;;6.28;1.70;;;22.40;78.10;;;;;;5035876;28;20100;-73
2022/08/29 00:28:20;;;;;;;3.40;1.45;;;22.30;78.50;;;;;;5033753;28;20049;-74
2022/08/29 00:30:46;;;;;;;6.30;1.80;;;22.20;79.40;;;;;;5052257;28;20547;-72
2022/08/29 00:33:12;;;;;;;5.00;1.50;;;22.10;79.20;;;;;;5033112;28;20037;-73
2022/08/29 00:35:40;;;;;;;5.30;1.63;;;21.90;79.60;;;;;;5032477;28;20493;-73
2022/08/29 00:38:10;;;;;;;4.90;1.58;;;21.90;79.90;;;;;;5044902;28;20025;-74
2022/08/29 00:40:49;;;;;;;3.67;1.67;;;21.90;79.70;;;;;;5055533;28;20036;-74
2022/08/29 00:43:17;;;;;;;6.13;1.42;;;21.90;80.00;;;;;;5054105;28;20025;-73
2022/08/29 00:45:56;;;;;;;5.57;2.10;;;22.00;79.90;;;;;;5055604;28;20029;-74
2022/08/29 00:48:22;;;;;;;3.67;1.20;;;22.00;79.90;;;;;;5053042;28;20134;-74
2022/08/29 00:50:58;;;;;;;2.83;1.30;;;22.00;79.70;;;;;;5055471;28;20053;-73
2022/08/29 00:53:33;;;;;;;6.10;1.70;;;22.10;79.40;;;;;;5037472;28;20025;-73
2022/08/29 00:56:00;;;;;;;3.63;1.55;;;22.20;79.00;;;;;;5040335;28;20072;-73
2022/08/29 00:58:41;;;;;;;5.47;1.40;;;22.20;79.10;;;;;;5055797;28;20150;-73
2022/08/29 01:01:07;;;;;;;3.78;1.38;;;22.10;79.20;;;;;;5053179;28;20547;-72
2022/08/29 01:03:35;;;;;;;5.90;1.65;;;22.10;79.30;;;;;;5037636;28;20391;-73
2022/08/29 01:06:02;;;;;;;4.70;1.80;;;22.00;79.50;;;;;;5046210;28;20499;-74
2022/08/29 01:08:29;;;;;;;6.00;1.77;;;21.80;80.30;;;;;;5055227;28;20111;-74
2022/08/29 01:13:42;;;;;;;5.68;1.65;;;21.50;81.20;;;;;;5038563;28;20395;-73
2022/08/29 01:16:10;;;;;;;4.10;1.55;;;21.50;81.40;;;;;;5034861;28;20048;-73
2022/08/29 01:18:38;;;;;;;4.32;1.60;;;21.40;81.70;;;;;;5035490;28;20064;-73
2022/08/29 01:21:09;;;;;;;6.57;1.70;;;21.60;81.40;;;;;;5035294;28;20041;-72
2022/08/29 01:23:49;;;;;;;4.70;1.43;;;21.50;81.50;;;;;;5050471;28;20033;-73
2022/08/29 01:26:15;;;;;;;4.78;1.40;;;21.60;81.30;;;;;;5035529;28;20037;-73
2022/08/29 01:28:44;;;;;;;4.97;1.50;;;21.40;81.80;;;;;;5035087;28;20075;-72
2022/08/29 01:31:21;;;;;;;3.17;1.35;;;21.40;82.00;;;;;;5033799;28;20026;-72
2022/08/29 01:34:05;;;;;;;3.83;1.83;;;21.40;82.10;;;;;;5036113;28;20265;-71
2022/08/29 01:36:44;;;;;;;6.63;2.15;;;21.20;82.70;;;;;;5035816;28;20091;-73
2022/08/29 01:39:10;;;;;;;7.68;2.47;;;21.10;83.00;;;;;;5047987;28;20069;-72
2022/08/29 01:41:35;;;;;;;4.95;1.60;;;21.10;83.30;;;;;;5055040;28;20524;-72
2022/08/29 01:44:09;;;;;;;6.20;1.60;;;21.00;83.50;;;;;;5037757;28;20021;-72
2022/08/29 01:46:35;;;;;;;3.13;1.40;;;21.00;83.50;;;;;;5054022;28;20025;-73
2022/08/29 01:49:02;;;;;;;6.05;1.48;;;21.00;83.60;;;;;;5054486;28;20496;-73
2022/08/29 01:51:29;;;;;;;3.60;1.45;;;20.90;84.10;;;;;;5054753;28;20021;-73
2022/08/29 01:53:55;;;;;;;6.60;1.83;;;20.90;84.00;;;;;;5050077;28;20112;-72
2022/08/29 01:56:24;;;;;;;5.95;1.40;;;21.00;83.90;;;;;;5036281;28;20490;-72
2022/08/29 01:58:52;;;;;;;5.20;1.45;;;21.20;83.30;;;;;;5034873;28;20028;-73
2022/08/29 02:01:22;;;;;;;8.18;1.88;;;21.10;83.50;;;;;;5034955;28;20036;-73
2022/08/29 02:03:48;;;;;;;2.70;1.42;;;21.20;83.20;;;;;;5036073;28;20540;-73
2022/08/29 02:06:14;;;;;;;4.53;1.35;;;21.10;83.40;;;;;;5054065;28;20028;-73
2022/08/29 02:08:42;;;;;;;6.53;1.65;;;21.00;83.60;;;;;;5054454;28;20021;-72
2022/08/29 02:11:09;;;;;;;5.95;1.65;;;21.00;83.40;;;;;;5054623;28;20119;-73
2022/08/29 02:13:44;;;;;;;3.45;1.30;;;21.10;83.10;;;;;;5045746;28;20497;-74
2022/08/29 02:16:11;;;;;;;5.63;1.58;;;21.00;83.30;;;;;;5034225;28;20084;-73
2022/08/29 02:18:37;;;;;;;3.10;1.67;;;21.20;82.70;;;;;;5054080;28;20026;-73
2022/08/29 02:21:03;;;;;;;4.00;1.27;;;21.20;82.80;;;;;;5054135;28;20025;-73
2022/08/29 02:23:29;;;;;;;2.67;1.58;;;21.20;82.90;;;;;;5049071;28;20029;-74
2022/08/29 02:25:55;;;;;;;4.53;1.45;;;21.00;83.00;;;;;;5054081;28;20021;-74
2022/08/29 02:28:21;;;;;;;4.38;1.40;;;21.00;83.30;;;;;;5053859;28;20108;-72
2022/08/29 02:30:49;;;;;;;3.38;1.20;;;21.00;83.40;;;;;;5054027;28;20424;-74
2022/08/29 02:33:16;;;;;;;3.38;1.35;;;21.00;83.30;;;;;;5050700;28;20083;-73
2022/08/29 02:35:43;;;;;;;5.00;1.52;;;20.90;83.50;;;;;;5037271;28;20044;-73
2022/08/29 02:38:09;;;;;;;4.38;1.45;;;20.80;84.00;;;;;;5044094;28;20079;-74
2022/08/29 02:40:35;;;;;;;6.55;1.80;;;20.90;83.70;;;;;;5033884;28;20110;-72
2022/08/29 02:43:02;;;;;;;8.13;1.90;;;20.80;84.00;;;;;;5033981;28;20020;-73
2022/08/29 02:45:28;;;;;;;3.03;1.63;;;20.80;84.10;;;;;;5033673;28;20037;-72
2022/08/29 02:47:54;;;;;;;2.55;1.50;;;20.70;84.20;;;;;;5038682;28;20109;-74
2022/08/29 02:50:20;;;;;;;5.63;1.73;;;20.70;84.20;;;;;;5052598;28;20056;-71
2022/08/29 02:52:46;;;;;;;5.28;1.92;;;20.80;84.20;;;;;;5053256;28;20032;-73
2022/08/29 02:55:15;;;;;;;6.47;1.73;;;20.80;83.70;;;;;;5041189;28;20029;-74
2022/08/29 02:57:44;;;;;;;4.75;1.45;;;20.90;83.80;;;;;;5033575;28;20029;-73
2022/08/29 03:00:15;;;;;;;4.45;1.77;;;21.00;83.10;;;;;;5052960;28;20432;-72
2022/08/29 03:02:41;;;;;;;5.43;1.75;;;21.20;82.50;;;;;;5052883;28;20393;-73
2022/08/29 03:05:07;;;;;;;5.43;1.73;;;21.20;82.60;;;;;;5039874;28;20501;-72
2022/08/29 03:07:33;;;;;;;5.38;2.00;;;21.10;82.60;;;;;;5033307;28;20124;-72
2022/08/29 03:09:59;;;;;;;6.65;1.70;;;21.20;82.30;;;;;;5035914;28;20031;-73
2022/08/29 03:12:26;;;;;;;4.72;1.58;;;21.20;82.30;;;;;;5050705;28;20068;-73
2022/08/29 03:14:51;;;;;;;4.40;2.10;;;21.00;82.90;;;;;;5051878;28;20021;-73
2022/08/29 03:17:17;;;;;;;4.32;1.77;;;20.70;83.60;;;;;;5053337;28;20386;-72
2022/08/29 03:19:42;;;;;;;5.55;1.95;;;20.90;83.40;;;;;;5040810;28;20051;-73
2022/08/29 03:22:08;;;;;;;3.83;1.85;;;21.00;82.90;;;;;;5033483;28;20509;-73
2022/08/29 03:24:35;;;;;;;3.90;1.08;;;21.00;82.70;;;;;;5032986;28;20037;-73
2022/08/29 03:27:02;;;;;;;4.90;1.73;;;21.00;82.80;;;;;;5033314;28;20025;-73
2022/08/29 03:29:27;;;;;;;2.75;1.50;;;21.10;82.50;;;;;;5033961;28;20033;-73
2022/08/29 03:31:57;;;;;;;5.60;1.85;;;21.20;82.20;;;;;;5033117;28;20028;-74
2022/08/29 03:34:23;;;;;;;5.05;1.67;;;21.10;82.40;;;;;;5031235;28;20458;-73
2022/08/29 03:36:49;;;;;;;4.75;1.85;;;21.10;82.50;;;;;;5033010;28;20038;-73
2022/08/29 03:39:14;;;;;;;6.65;1.60;;;21.20;82.50;;;;;;5035705;28;20033;-74
2022/08/29 03:41:40;;;;;;;6.18;1.60;;;21.10;82.20;;;;;;5033042;28;20072;-74
2022/08/29 03:44:05;;;;;;;7.93;2.10;;;21.00;82.60;;;;;;5033019;28;20018;-73
2022/08/29 03:46:31;;;;;;;3.03;1.58;;;21.00;82.80;;;;;;5032714;28;20088;-73
2022/08/29 03:48:57;;;;;;;5.13;2.50;;;21.00;82.70;;;;;;5040378;28;20083;-73
2022/08/29 03:51:23;;;;;;;3.33;1.40;;;21.10;82.30;;;;;;5038878;28;20021;-72
2022/08/29 03:53:48;;;;;;;5.63;1.73;;;21.00;82.60;;;;;;5052860;28;20028;-74
2022/08/29 03:56:15;;;;;;;3.17;1.60;;;20.90;82.80;;;;;;5052359;28;20040;-72
2022/08/29 03:58:41;;;;;;;5.05;2.25;;;21.00;83.20;;;;;;5043291;28;20026;-73
2022/08/29 04:01:07;;;;;;;8.55;1.83;;;21.10;82.40;;;;;;5050966;28;20066;-73
2022/08/29 04:03:32;;;;;;;3.50;1.63;;;21.10;82.30;;;;;;5031930;28;20034;-72
2022/08/29 04:05:58;;;;;;;6.43;1.92;;;21.20;82.20;;;;;;5032611;28;20022;-73
2022/08/29 04:08:24;;;;;;;4.95;2.05;;;21.20;82.30;;;;;;5032317;28;20025;-73
2022/08/29 04:10:49;;;;;;;3.75;2.00;;;20.90;82.90;;;;;;5032728;28;20041;-72
2022/08/29 04:13:15;;;;;;;6.63;2.10;;;20.70;83.60;;;;;;5053757;28;20025;-74
2022/08/29 04:15:41;;;;;;;7.47;2.28;;;20.70;83.60;;;;;;5042981;28;20046;-73
2022/08/29 04:18:09;;;;;;;4.18;1.95;;;20.70;83.50;;;;;;5036266;28;20027;-73
2022/08/29 04:20:43;;;;;;;5.35;2.50;;;20.80;83.20;;;;;;5036535;28;20021;-74
2022/08/29 04:23:11;;;;;;;6.10;1.60;;;20.80;83.20;;;;;;5051715;28;20033;-73
2022/08/29 04:25:38;;;;;;;5.10;2.08;;;20.80;83.30;;;;;;5035985;28;20032;-73
2022/08/29 04:28:06;;;;;;;5.88;1.70;;;20.90;83.00;;;;;;5036749;28;20032;-73
2022/08/29 04:30:33;;;;;;;6.43;2.30;;;20.90;82.80;;;;;;5035875;28;20024;-74
2022/08/29 04:32:59;;;;;;;7.32;2.13;;;20.90;82.90;;;;;;5049675;28;20064;-74
2022/08/29 04:35:25;;;;;;;5.65;1.73;;;20.80;82.90;;;;;;5055886;28;20021;-73
2022/08/29 04:37:50;;;;;;;7.15;2.33;;;20.80;83.10;;;;;;5053681;28;20086;-73
2022/08/29 04:40:19;;;;;;;4.47;1.85;;;20.80;83.00;;;;;;5055127;28;20052;-73
2022/08/29 04:42:48;;;;;;;6.10;2.40;;;20.90;82.90;;;;;;5045900;28;20034;-73
2022/08/29 04:45:18;;;;;;;6.55;2.05;;;20.90;82.70;;;;;;5041868;28;20025;-73
2022/08/29 04:47:44;;;;;;;126.93;17.92;;;21.00;82.40;;;;;;5036853;28;20029;-74
2022/08/29 04:50:14;;;;;;;8.20;2.50;;;21.00;82.40;;;;;;5052618;28;20040;-74
2022/08/29 04:52:40;;;;;;;4.70;2.22;;;20.80;82.90;;;;;;5049627;28;20055;-74
2022/08/29 04:55:06;;;;;;;5.00;1.88;;;20.80;83.00;;;;;;5035661;28;20429;-74
2022/08/29 04:57:33;;;;;;;5.25;2.10;;;20.80;82.80;;;;;;5041549;28;20466;-75
2022/08/29 04:59:59;;;;;;;7.07;2.45;;;20.70;83.40;;;;;;5049561;28;20155;-66
2022/08/29 05:02:26;;;;;;;12.70;2.85;;;20.40;84.00;;;;;;5041248;28;20483;-66
2022/08/29 05:04:51;;;;;;;10.82;2.65;;;20.20;84.60;;;;;;5038039;28;20036;-66
2022/08/29 05:07:22;;;;;;;12.68;2.88;;;20.50;84.00;;;;;;5040128;28;20013;-66
2022/08/29 05:10:00;;;;;;;5.75;3.20;;;20.60;83.50;;;;;;5045933;28;20486;-67
2022/08/29 05:12:27;;;;;;;11.60;3.17;;;20.40;83.80;;;;;;5054556;28;20029;-64
2022/08/29 05:14:53;;;;;;;11.23;3.63;;;20.20;84.30;;;;;;5047210;28;20032;-67
2022/08/29 05:17:20;;;;;;;7.68;2.90;;;20.10;84.90;;;;;;5053823;28;20029;-65
2022/08/29 05:19:46;;;;;;;13.35;4.07;;;20.10;85.20;;;;;;5053673;28;20032;-66
2022/08/29 05:22:16;;;;;;;6.93;3.10;;;20.20;84.90;;;;;;5052660;28;20033;-65
2022/08/29 05:24:43;;;;;;;10.30;3.10;;;20.20;84.80;;;;;;5038341;28;20045;-64
2022/08/29 05:27:11;;;;;;;7.30;3.47;;;20.20;84.80;;;;;;5035492;28;20054;-66
2022/08/29 05:29:41;;;;;;;11.95;3.30;;;20.20;84.70;;;;;;5034947;28;20108;-67
2022/08/29 05:32:09;;;;;;;10.00;3.08;;;20.00;85.10;;;;;;5045569;28;20379;-67
2022/08/29 05:34:37;;;;;;;8.10;3.28;;;20.00;85.30;;;;;;5055325;28;20115;-67
2022/08/29 05:37:05;;;;;;;5.97;3.78;;;20.30;84.60;;;;;;5043759;28;20103;-67
2022/08/29 05:39:32;;;;;;;7.63;3.40;;;20.10;84.90;;;;;;5034887;28;20398;-66
2022/08/29 05:41:58;;;;;;;7.57;3.50;;;20.00;85.40;;;;;;5052737;28;20032;-66
2022/08/29 05:44:26;;;;;;;4.95;2.92;;;20.10;85.10;;;;;;5054773;28;20113;-67
2022/08/29 05:46:52;;;;;;;7.32;2.67;;;20.10;85.10;;;;;;5054777;28;20035;-66
2022/08/29 05:49:17;;;;;;;12.27;3.25;;;20.20;84.70;;;;;;5054836;28;20104;-66
2022/08/29 05:51:43;;;;;;;8.20;3.30;;;20.20;84.80;;;;;;5039730;28;20494;-65
2022/08/29 05:54:09;;;;;;;9.90;3.60;;;20.50;83.70;;;;;;5034698;28;20025;-66
2022/08/29 05:56:34;;;;;;;6.07;3.30;;;20.30;84.30;;;;;;5034818;28;20029;-66
2022/08/29 05:59:00;;;;;;;8.88;2.90;;;20.30;84.30;;;;;;5034507;28;20109;-66
2022/08/29 06:01:29;;;;;;;8.88;3.40;;;20.10;84.80;;;;;;5046178;28;20025;-66
2022/08/29 06:03:55;;;;;;;6.50;3.00;;;20.00;85.20;;;;;;5038172;28;20025;-66
2022/08/29 06:06:27;;;;;;;10.55;3.60;;;20.20;84.70;;;;;;5034612;28;20041;-67
2022/08/29 06:08:53;;;;;;;7.60;2.83;;;20.30;84.50;;;;;;5034829;28;20166;-67
2022/08/29 06:11:23;;;;;;;6.43;2.90;;;20.30;84.40;;;;;;5042876;28;20108;-67
2022/08/29 06:13:49;;;;;;;10.90;3.40;;;20.30;84.40;;;;;;5053464;28;20025;-67
2022/08/29 06:16:18;;;;;;;12.85;3.65;;;20.20;84.30;;;;;;5039922;28;20397;-67
2022/08/29 06:18:44;;;;;;;11.90;3.80;;;20.20;84.60;;;;;;5047401;28;20116;-66
2022/08/29 06:21:10;;;;;;;5.63;3.35;;;20.30;84.40;;;;;;5054237;28;20068;-66
2022/08/29 06:23:37;;;;;;;10.90;3.78;;;20.30;84.40;;;;;;5052418;28;20102;-63
2022/08/29 06:26:04;;;;;;;9.57;4.00;;;20.30;84.30;;;;;;5041522;28;20414;-67
2022/08/29 06:28:31;;;;;;;9.05;3.95;;;20.40;84.10;;;;;;5033782;28;20029;-66
2022/08/29 06:31:04;;;;;;;9.27;3.75;;;20.30;84.50;;;;;;5040542;28;20025;-67
2022/08/29 06:33:29;;;;;;;7.90;3.70;;;20.40;84.60;;;;;;5053511;28;20017;-67
2022/08/29 06:35:55;;;;;;;9.38;3.75;;;20.30;84.70;;;;;;5042314;28;20041;-66
2022/08/29 06:38:21;;;;;;;8.68;3.80;;;20.30;84.40;;;;;;5033936;28;20025;-67
2022/08/29 06:40:46;;;;;;;11.35;3.90;;;20.40;84.40;;;;;;5033910;28;20537;-64
2022/08/29 06:43:12;;;;;;;24.48;6.38;;;20.20;84.80;;;;;;5034024;28;20378;-66
2022/08/29 06:45:41;;;;;;;13.15;4.28;;;20.50;84.70;;;;;;5041547;28;20392;-66
2022/08/29 06:48:07;;;;;;;11.68;4.22;;;20.60;84.20;;;;;;5054029;28;20028;-67
2022/08/29 06:50:35;;;;;;;11.20;4.18;;;20.70;83.30;;;;;;5053508;28;20029;-66
2022/08/29 06:53:01;;;;;;;9.45;4.25;;;20.90;83.00;;;;;;5047772;28;20024;-67
2022/08/29 06:55:27;;;;;;;8.73;4.32;;;20.60;83.40;;;;;;5033383;28;20030;-65
2022/08/29 06:57:53;;;;;;;8.65;3.80;;;20.70;83.90;;;;;;5033961;28;20115;-66
2022/08/29 07:00:20;;;;;;;7.07;3.40;;;20.80;83.50;;;;;;5045265;28;20021;-66
2022/08/29 07:02:50;;;;;;;9.80;3.75;;;21.00;82.80;;;;;;5037009;28;20475;-66
2022/08/29 07:05:15;;;;;;;6.60;3.60;;;20.90;83.00;;;;;;5033687;28;20067;-66
2022/08/29 07:07:41;;;;;;;10.45;3.83;;;21.00;82.60;;;;;;5036717;28;20029;-66
2022/08/29 07:10:07;;;;;;;10.93;4.00;;;21.00;82.30;;;;;;5040440;28;20029;-67
2022/08/29 07:12:33;;;;;;;6.82;3.63;;;20.90;82.20;;;;;;5045595;28;20075;-67
2022/08/29 07:15:00;;;;;;;10.55;3.17;;;20.90;82.10;;;;;;5041542;28;20021;-67
2022/08/29 07:17:28;;;;;;;10.55;3.40;;;20.90;82.00;;;;;;5033663;28;20030;-65
2022/08/29 07:19:54;;;;;;;8.48;3.45;;;21.10;81.50;;;;;;5039820;28;20493;-66
2022/08/29 07:22:19;;;;;;;14.27;3.08;;;20.90;81.50;;;;;;5053187;28;20040;-67
2022/08/29 07:24:45;;;;;;;10.55;3.42;;;21.00;81.80;;;;;;5052777;28;20025;-66
2022/08/29 07:27:12;;;;;;;10.00;4.00;;;21.10;81.50;;;;;;5052008;28;20043;-64
2022/08/29 07:29:38;;;;;;;6.38;3.40;;;21.20;81.20;;;;;;5048762;28;20073;-64
2022/08/29 07:32:04;;;;;;;9.73;3.08;;;21.10;81.00;;;;;;5037340;28;20033;-67
2022/08/29 07:34:30;;;;;;;8.40;3.28;;;21.20;81.10;;;;;;5051762;28;20070;-67
2022/08/29 07:36:55;;;;;;;10.85;3.97;;;21.50;80.70;;;;;;5047579;28;20479;-66
2022/08/29 07:39:21;;;;;;;8.38;3.25;;;21.60;80.00;;;;;;5043481;28;20025;-67
2022/08/29 07:41:47;;;;;;;9.23;3.97;;;21.50;79.60;;;;;;5051381;28;20360;-66
2022/08/29 07:44:14;;;;;;;14.30;3.80;;;21.60;79.30;;;;;;5052883;28;20538;-67
2022/08/29 07:46:41;;;;;;;12.40;3.42;;;21.50;78.50;;;;;;5050810;28;20382;-67
2022/08/29 07:49:07;;;;;;;7.63;3.20;;;21.50;78.70;;;;;;5053000;28;20028;-67
2022/08/29 07:51:33;;;;;;;10.82;3.28;;;21.50;79.00;;;;;;5052822;28;20029;-67
2022/08/29 07:53:59;;;;;;;9.75;3.20;;;21.50;78.60;;;;;;5049523;28;20100;-64
2022/08/29 07:56:31;;;;;;;10.10;3.08;;;21.70;78.30;;;;;;5041173;28;20049;-65
2022/08/29 07:58:57;;;;;;;;;;;21.90;77.20;;;;;;5050794;28;20028;-66
2022/08/29 08:01:23;;;;;;;7.95;2.83;;;21.80;76.80;;;;;;5050110;28;19978;-67
2022/08/29 08:03:50;;;;;;;7.63;2.72;;;21.70;76.70;;;;;;5050691;28;20396;-67
2022/08/29 08:06:16;;;;;;;9.40;2.92;;;21.90;76.40;;;;;;5050819;28;20092;-66
2022/08/29 08:08:42;;;;;;;7.22;3.15;;;22.00;75.70;;;;;;5049890;28;20029;-65
2022/08/29 08:11:08;;;;;;;11.15;3.20;;;22.00;75.70;;;;;;5049904;28;20470;-66
2022/08/29 08:13:34;;;;;;;8.98;3.00;;;22.30;75.10;;;;;;5041102;28;20095;-66
2022/08/29 08:16:05;;;;;;;7.55;2.95;;;22.30;75.20;;;;;;5041664;28;20029;-67
2022/08/29 08:18:30;;;;;;;10.88;3.25;;;22.50;74.90;;;;;;5032330;28;20033;-67
2022/08/29 08:20:56;;;;;;;11.80;3.38;;;22.40;75.90;;;;;;5038533;28;20018;-67
2022/08/29 08:23:22;;;;;;;15.55;3.65;;;22.50;74.40;;;;;;5057647;28;20178;-67
2022/08/29 08:25:47;;;;;;;11.57;3.70;;;22.60;74.10;;;;;;5042649;28;20026;-66
2022/08/29 08:28:14;;;;;;;6.82;3.00;;;22.60;73.00;;;;;;5033865;28;20021;-66
2022/08/29 08:30:40;;;;;;;7.63;3.50;;;22.50;72.10;;;;;;5042556;28;20378;-66
2022/08/29 08:33:05;;;;;;;11.02;3.80;;;22.60;72.50;;;;;;5043453;28;20493;-67
2022/08/29 08:35:34;;;;;;;7.95;3.33;;;22.50;71.70;;;;;;5044607;28;20029;-66
2022/08/29 08:38:00;;;;;;;7.70;3.63;;;22.70;71.40;;;;;;5038401;28;20029;-66
2022/08/29 08:40:27;;;;;;;7.10;3.25;;;22.60;70.90;;;;;;5046410;28;20036;-65
2022/08/29 08:43:02;;;;;;;11.38;3.92;;;22.40;70.20;;;;;;5047010;28;20028;-64
2022/08/29 08:45:42;;;;;;;9.77;3.55;;;22.20;70.60;;;;;;5046458;28;20091;-65
2022/08/29 08:48:27;;;;;;;8.40;4.22;;;22.20;71.10;;;;;;5045933;28;20121;-63
2022/08/29 08:50:59;;;;;;;6.82;3.28;;;22.40;70.20;;;;;;5044266;28;20064;-62
2022/08/29 08:53:38;;;;;;;5.72;3.42;;;22.20;69.90;;;;;;5041205;28;20481;-63
2022/08/29 08:56:29;;;;;;;6.93;3.45;;;22.20;69.90;;;;;;5039893;28;20033;-62
2022/08/29 08:59:12;;;;;;;8.90;3.45;;;22.10;70.10;;;;;;5039382;28;20048;-64
2022/08/29 09:01:54;;;;;;;;;;;22.10;69.80;;;;;;5049419;28;20061;-65
2022/08/29 09:05:04;;;;;;;6.75;3.78;;;22.00;69.80;;;;;;5044261;28;19917;-63
2022/08/29 09:08:07;;;;;;;5.88;3.58;;;21.90;70.00;;;;;;5025801;28;20053;-65
2022/08/29 09:10:42;;;;;;;8.20;3.20;;;22.00;70.20;;;;;;5049190;28;20063;-64
2022/08/29 09:13:27;;;;;;;7.22;3.15;;;22.00;69.80;;;;;;5038072;28;20026;-63
2022/08/29 09:15:55;;;;;;;6.18;3.13;;;22.30;69.30;;;;;;5043941;28;20026;-63
2022/08/29 09:18:37;;;;;;;8.38;3.38;;;22.10;69.60;;;;;;5045508;28;20037;-64
2022/08/29 09:21:09;;;;;;;5.32;3.42;;;22.00;69.30;;;;;;5042718;28;20032;-61
2022/08/29 09:23:45;;;;;;;6.65;3.38;;;21.90;69.70;;;;;;5044524;28;20036;-62
2022/08/29 09:26:14;;;;;;;7.07;3.28;;;21.90;69.40;;;;;;5042051;28;20438;-65
2022/08/29 09:28:40;;;;;;;6.05;3.10;;;21.80;69.80;;;;;;5048826;28;20033;-62
2022/08/29 09:31:32;;;;;;;6.88;3.28;;;21.90;70.00;;;;;;5039989;28;20032;-63
2022/08/29 09:34:02;;;;;;;8.27;3.33;;;22.00;69.60;;;;;;5041873;28;20075;-64
2022/08/29 09:36:46;;;;;;;8.00;3.60;;;22.30;69.10;;;;;;5051554;28;20353;-61
2022/08/29 09:39:11;;;;;;;9.30;3.40;;;22.30;68.50;;;;;;5051009;28;20037;-63
2022/08/29 09:41:37;;;;;;;7.75;3.03;;;22.40;68.10;;;;;;5052100;28;20025;-62
2022/08/29 09:44:05;;;;;;;5.70;3.35;;;22.40;68.00;;;;;;5053103;28;20029;-62
2022/08/29 09:46:31;;;;;;;8.48;3.10;;;22.30;68.30;;;;;;5073866;28;20013;-62
2022/08/29 09:48:56;;;;;;;7.15;3.28;;;22.20;68.20;;;;;;5056231;28;20021;-62
2022/08/29 09:51:27;;;;;;;4.45;2.60;;;22.20;68.10;;;;;;5053658;28;20079;-63
2022/08/29 09:54:21;;;;;;;6.70;2.90;;;22.50;67.80;;;;;;5053870;28;20039;-64
2022/08/29 09:57:26;;;;;;;6.20;3.03;;;22.60;67.60;;;;;;5048533;28;20029;-61
2022/08/29 10:00:13;;;;;;;6.75;3.50;;;22.90;67.80;;;;;;5016866;28;20029;-60
2022/08/29 10:02:44;;;;;;;5.07;2.95;;;22.70;67.50;;;;;;5018881;28;20034;-64
2022/08/29 10:05:32;;;;;;;6.93;3.15;;;22.70;66.90;;;;;;5030426;28;20108;-62
2022/08/29 10:07:58;;;;;;;5.18;2.90;;;22.50;67.30;;;;;;5052059;28;20021;-65
2022/08/29 10:10:29;;;;;;;8.65;3.50;;;22.60;67.50;;;;;;5044729;28;20033;-62
2022/08/29 10:13:30;;;;;;;4.60;3.00;;;22.50;67.70;;;;;;5048027;28;20013;-62
2022/08/29 10:16:02;;;;;;;5.00;2.88;;;22.40;67.80;;;;;;5043359;28;20118;-61
2022/08/29 10:18:30;;;;;;;6.50;3.17;;;22.40;67.80;;;;;;5050230;28;20482;-62
2022/08/29 10:21:23;;;;;;;6.25;2.97;;;22.30;67.60;;;;;;5051912;28;20029;-62
2022/08/29 10:24:10;;;;;;;5.88;3.10;;;22.30;68.20;;;;;;5047385;28;20025;-63
2022/08/29 10:26:59;;;;;;;7.93;3.45;;;22.10;68.00;;;;;;5044520;28;20080;-62
2022/08/29 10:29:49;;;;;;;8.75;3.03;;;22.10;68.60;;;;;;5041669;28;20032;-62
2022/08/29 10:32:27;;;;;;;7.00;2.55;;;22.30;68.40;;;;;;5053422;28;20029;-62
2022/08/29 10:35:11;;;;;;;5.80;3.28;;;22.50;68.30;;;;;;5048926;28;20028;-62
2022/08/29 10:37:45;;;;;;;5.20;2.88;;;22.50;67.80;;;;;;5045733;28;20029;-62
2022/08/29 10:40:48;;;;;;;4.85;3.10;;;22.70;67.50;;;;;;5050511;28;20398;-62
2022/08/29 10:43:32;;;;;;;5.10;3.00;;;22.80;67.30;;;;;;5042402;28;20033;-70
2022/08/29 10:46:31;;;;;;;5.93;3.20;;;23.00;68.40;;;;;;5037328;28;20075;-67
2022/08/29 10:49:00;;;;;;;5.28;3.33;;;22.40;68.10;;;;;;5040736;28;20032;-67
2022/08/29 10:52:04;;;;;;;6.45;2.88;;;22.00;68.90;;;;;;5047606;28;20116;-67
2022/08/29 10:54:37;;;;;;;6.40;3.55;;;21.90;70.30;;;;;;5044321;28;20510;-67
2022/08/29 10:57:05;;;;;;;9.05;3.10;;;21.80;70.20;;;;;;5039840;28;20516;-66
2022/08/29 10:59:45;;;;;;;8.35;3.22;;;21.80;70.70;;;;;;5044477;28;20482;-67
2022/08/29 11:02:40;;;;;;;4.47;2.75;;;21.90;72.60;;;;;;5039564;28;20116;-67
2022/08/29 11:05:23;;;;;;;7.50;2.65;;;22.00;70.90;;;;;;5043926;28;20021;-66
2022/08/29 11:08:06;;;;;;;6.95;3.10;;;21.80;70.20;;;;;;5039733;28;20025;-68
2022/08/29 11:10:42;;;;;;;9.13;3.88;;;21.70;71.40;;;;;;5051536;28;20067;-69
2022/08/29 11:13:11;;;;;;;5.57;3.28;;;21.90;71.20;;;;;;5051765;28;20036;-69
2022/08/29 11:15:51;;;;;;;10.00;6.40;;;21.90;71.10;;;;;;5037545;28;20033;-69
2022/08/29 11:18:30;;;;;;;127.55;93.15;;;21.80;70.10;;;;;;5046112;28;20026;-70
2022/08/29 11:21:21;;;;;;;174.18;125.20;;;21.80;71.60;;;;;;5042971;28;20474;-69
2022/08/29 11:23:47;;;;;;;87.85;59.17;;;21.90;73.00;;;;;;5029635;28;20037;-69
2022/08/29 11:26:16;;;;;;;109.32;74.57;;;22.10;71.70;;;;;;5045786;28;20082;-69
2022/08/29 11:28:56;;;;;;;38.47;26.58;;;22.10;72.50;;;;;;5049390;28;20478;-67
2022/08/29 11:31:46;;;;;;;16.08;10.35;;;22.10;70.10;;;;;;5050429;28;20074;-67
2022/08/29 11:38:12;;;;;;;18.05;11.27;;;21.90;70.30;;;;;;5045075;28;20524;-67
2022/08/29 11:40:45;;;;;;;75.00;56.05;;;21.90;70.60;;;;;;5023818;28;20041;-68
2022/08/29 11:43:19;;;;;;;25.65;19.02;;;22.00;72.00;;;;;;5033470;28;20033;-67
2022/08/29 11:45:58;;;;;;;58.78;40.60;;;22.00;71.10;;;;;;5031831;28;20383;-66
2022/08/29 11:48:38;;;;;;;13.43;10.57;;;22.00;71.70;;;;;;5043787;28;20033;-69
2022/08/29 11:51:32;;;;;;;28.55;19.90;;;22.10;71.10;;;;;;5052227;28;20033;-67
2022/08/29 11:54:23;;;;;;;14.43;6.75;;;22.10;71.40;;;;;;5050480;28;20112;-67
2022/08/29 11:57:09;;;;;;;47.05;33.08;;;22.00;70.60;;;;;;5034688;28;20479;-67
2022/08/29 11:59:49;;;;;;;29.55;20.35;;;22.10;71.30;;;;;;5036275;28;20025;-66
2022/08/29 12:02:28;;;;;;;15.60;7.50;;;22.20;71.20;;;;;;5051892;28;20128;-68
2022/08/29 12:04:57;;;;;;;13.55;7.95;;;22.20;70.90;;;;;;5050836;28;20039;-69
2022/08/29 12:07:43;;;;;;;18.15;11.55;;;22.10;70.40;;;;;;5045681;28;20029;-68
2022/08/29 12:10:27;;;;;;;9.18;5.30;;;22.20;70.60;;;;;;5044880;28;20030;-68
2022/08/29 12:12:58;;;;;;;9.57;6.20;;;22.20;69.70;;;;;;5031719;28;20030;-68
2022/08/29 12:15:30;;;;;;;13.00;7.78;;;22.20;70.60;;;;;;5043060;28;20025;-67
2022/08/29 12:17:56;;;;;;;14.65;6.10;;;22.20;70.20;;;;;;5038459;28;20052;-70
2022/08/29 12:20:44;;;;;;;7.20;4.30;;;22.30;70.40;;;;;;5036417;28;20065;-68
2022/08/29 12:23:11;;;;;;;6.47;3.72;;;22.30;69.80;;;;;;5032584;28;20034;-69
2022/08/29 12:25:45;;;;;;;9.85;4.88;;;22.20;69.30;;;;;;5038785;28;20029;-70
2022/08/29 12:28:16;;;;;;;9.23;5.80;;;22.20;70.00;;;;;;5039956;28;20033;-70
2022/08/29 12:31:04;;;;;;;7.45;4.05;;;22.30;69.90;;;;;;5051327;28;20100;-70
2022/08/29 12:33:52;;;;;;;8.90;4.40;;;22.30;69.70;;;;;;5055451;28;20033;-70
2022/08/29 12:36:25;;;;;;;6.47;3.83;;;22.30;69.80;;;;;;5042853;28;20037;-69
2022/08/29 12:39:21;;;;;;;8.13;4.57;;;22.30;69.20;;;;;;5047465;28;20025;-69
2022/08/29 12:42:11;;;;;;;9.10;5.47;;;22.30;70.00;;;;;;5035238;28;20033;-69
2022/08/29 12:44:43;;;;;;;7.80;4.47;;;22.40;69.50;;;;;;5035796;28;20064;-67
2022/08/29 12:47:20;;;;;;;9.23;4.00;;;22.40;69.60;;;;;;5036459;28;20043;-67
2022/08/29 12:49:54;;;;;;;9.93;3.88;;;22.40;69.30;;;;;;5052923;28;20055;-65
2022/08/29 12:53:03;;;;;;;7.50;4.07;;;22.40;69.00;;;;;;5048621;28;20529;-66
2022/08/29 12:55:38;;;;;;;8.85;4.10;;;22.40;69.90;;;;;;5024709;28;20061;-66
2022/08/29 12:58:04;;;;;;;9.25;4.00;;;22.50;69.50;;;;;;5065727;28;20052;-65
2022/08/29 13:00:38;;;;;;;7.97;3.72;;;22.50;69.60;;;;;;5048525;28;20508;-65
2022/08/29 13:03:17;;;;;;;6.57;3.58;;;22.50;68.40;;;;;;5055929;28;20013;-65
2022/08/29 13:05:45;;;;;;;4.78;3.10;;;22.40;69.20;;;;;;5039893;28;20104;-65
2022/08/29 13:08:26;;;;;;;8.93;3.42;;;22.50;69.20;;;;;;5035422;28;20053;-65
2022/08/29 13:11:02;;;;;;;6.38;3.00;;;22.60;69.00;;;;;;5053777;28;20437;-64
2022/08/29 13:13:29;;;;;;;6.32;2.90;;;22.50;68.60;;;;;;5049522;28;20043;-65